Accueil
METAR-TAF:

METAR-TAF

Aéroports :

Athènes, Grèce

Aéroport international d'Athènes Elefthérios-Venizélos

latitude: 37-56N, longitude: 023-56E, altitude: 94 m

Observation

Le bulletin a été fait il y a 28 minutes, à 04:50 UTC
Vent calme
Température 24°C
Humidité 69%
Pression 1011 hPa
Visibilité 10 km ou plus
pas de nuages en-dessous de 1500 mètres et pas de cumulonimbus.

METAR: LGAV 260450Z 00000KT CAVOK 24/18 Q1011 NOSIG

Heure: 08:18 (05:18 UTC)


TAF: absent

Observations et prévisions météorologiques de plus de 4000 aéroports (messages METAR et TAF).

Les stations disponibles sont représentées par des disques jaunes et rouges sur la carte.

Passer la souris dessus pour voir le nom de la station.

Cliquer dessus pour voir les observations et prévisions météorologiques.

Pour changer de carte: cliquez sur les boutons verts avec une croix noire pour zoomer, sur le bouton vert avec un tiret pour effectuer un zoom arrière, ou sur les flèches vertes pour les cartes adjacentes.


METAR-TAF: